.
WxDataArchive / Data Records for 2011-08-01
2011-07-31 August 2011 2011-08-02

Data Records for Monday, 01 August 2011

Time	Temp	Chill	HIndex	Humid	Dewpt	 Wind 	HiWind	WindDir	Rain 	Barom 
-----	----	-----	------	-----	-----	------	------	-------	-----	----- 
00:00	74.9	74.9	74.9	72	65.2	0	0	---	0.00	30.023 
00:05	74.6	74.6	74.6	73	65.4	0	0	---	0.00	30.023 
00:10	74.4	74.4	74.4	73	65.2	0	0	---	0.00	30.023 
00:15	74.2	74.2	74.2	74	65.4	0	0	---	0.00	30.023 
00:20	74.0	74.0	74.0	75	65.6	0	0	---	0.00	30.023 
00:25	73.9	73.9	73.9	75	65.5	0	0	---	0.00	30.023 
00:30	73.7	73.7	73.7	76	65.6	0	0	---	0.00	30.029 
00:35	73.5	73.5	73.5	77	65.8	0	0	---	0.00	30.029 
00:40	73.3	73.3	73.3	77	65.6	0	0	---	0.00	30.029 
00:45	73.2	73.2	73.2	78	65.9	0	0	---	0.00	30.029 
00:50	73.0	73.0	73.0	78	65.7	0	0	---	0.00	30.029 
00:55	72.8	72.8	72.8	78	65.5	0	0	---	0.00	30.029 
01:00	72.7	72.7	72.7	79	65.8	0	0	---	0.00	30.031 
01:05	72.3	72.3	72.3	80	65.8	0	0	---	0.00	30.031 
01:10	72.1	72.1	72.1	80	65.6	0	0	---	0.00	30.031 
01:15	72.1	72.1	72.1	81	65.9	0	0	---	0.00	30.030 
01:20	72.0	72.0	72.0	81	65.8	0	0	---	0.00	30.030 
01:25	71.8	71.8	71.8	81	65.6	0	0	---	0.00	30.030 
01:30	71.8	71.8	71.8	81	65.6	0	0	---	0.00	30.030 
01:35	71.6	71.6	71.6	82	65.8	0	0	---	0.00	30.030 
01:40	71.6	71.6	71.6	82	65.8	0	0	---	0.00	30.030 
01:45	71.5	71.5	71.5	82	65.7	0	0	---	0.00	30.028 
01:50	71.5	71.5	71.5	82	65.7	0	0	---	0.00	30.028 
01:55	71.3	71.3	71.3	82	65.5	0	0	---	0.00	30.028 
02:00	71.3	71.3	71.3	82	65.5	0	0	---	0.00	30.029 
02:05	71.1	71.1	71.1	82	65.3	0	0	---	0.00	30.029 
02:10	70.9	70.9	70.9	83	65.5	0	0	---	0.00	30.029 
02:15	70.8	70.8	70.8	83	65.4	0	0	---	0.00	30.025 
02:20	70.6	70.6	70.6	84	65.5	0	0	---	0.00	30.025 
02:25	70.6	70.6	70.6	84	65.5	0	0	---	0.00	30.025 
02:30	70.4	70.4	70.4	84	65.3	0	0	---	0.00	30.025 
02:35	70.3	70.3	70.3	84	65.2	0	0	---	0.00	30.025 
02:40	70.3	70.3	70.3	84	65.2	0	0	---	0.00	30.025 
02:45	70.1	70.1	70.1	84	65.0	0	0	---	0.00	30.018 
02:50	69.9	69.9	69.9	84	64.8	0	0	---	0.00	30.018 
02:55	69.9	69.9	69.9	85	65.2	0	0	---	0.00	30.018 
03:00	69.8	69.8	69.8	85	65.1	0	0	---	0.00	30.013 
03:05	69.6	69.6	69.6	85	64.9	0	0	---	0.00	30.013 
03:10	69.4	69.4	69.4	86	65.0	0	0	---	0.00	30.013 
03:15	69.4	69.4	69.4	86	65.0	0	0	---	0.00	30.014 
03:20	69.3	69.3	69.3	87	65.3	0	0	---	0.00	30.014 
03:25	69.1	69.1	69.1	87	65.1	0	0	---	0.00	30.014 
03:30	68.9	68.9	68.9	87	64.9	0	0	---	0.00	30.014 
03:35	68.9	68.9	68.9	88	65.2	0	0	---	0.00	30.014 
03:40	68.8	68.8	68.8	88	65.1	0	0	---	0.00	30.014 
03:45	68.6	68.6	68.6	88	64.9	0	0	---	0.00	30.014 
03:50	68.4	68.4	68.4	88	64.7	0	0	---	0.00	30.014 
03:55	68.3	68.3	68.3	88	64.6	0	0	---	0.00	30.014 
04:00	68.1	68.1	68.1	88	64.4	0	0	---	0.00	30.015 
04:05	68.1	68.1	68.1	88	64.4	0	0	---	0.00	30.015 
04:10	68.1	68.1	68.1	89	64.7	0	0	---	0.00	30.015 
04:15	68.1	68.1	68.1	89	64.7	0	0	---	0.00	30.018 
04:20	68.1	68.1	68.1	89	64.7	0	0	---	0.00	30.018 
04:25	68.1	68.1	68.1	89	64.7	0	0	---	0.00	30.018 
04:30	68.1	68.1	68.1	89	64.7	0	0	---	0.00	30.015 
04:35	68.1	68.1	68.1	89	64.7	0	0	---	0.00	30.015 
04:40	68.1	68.1	68.1	89	64.7	0	0	---	0.00	30.015 
04:45	67.9	67.9	67.9	90	64.9	0	0	---	0.00	30.017 
04:50	67.9	67.9	67.9	90	64.9	0	0	---	0.00	30.017 
04:55	67.8	67.8	67.8	90	64.8	0	0	---	0.00	30.017 
05:00	67.8	67.8	67.8	90	64.8	0	0	---	0.00	30.018 
05:05	67.8	67.8	67.8	90	64.8	0	0	---	0.00	30.018 
05:10	67.8	67.8	67.8	90	64.8	0	0	---	0.00	30.018 
05:15	67.8	67.8	67.8	91	65.1	0	0	---	0.00	30.021 
05:20	67.8	67.8	67.8	91	65.1	0	0	---	0.00	30.021 
05:25	67.6	67.6	67.6	91	64.9	0	0	---	0.00	30.021 
05:30	67.8	67.8	67.8	91	65.1	0	0	---	0.00	30.023 
05:35	67.8	67.8	67.8	91	65.1	0	0	---	0.00	30.023 
05:40	67.8	67.8	67.8	91	65.1	0	0	---	0.00	30.023 
05:45	67.8	67.8	67.8	92	65.4	0	0	---	0.00	30.020 
05:50	67.9	67.9	67.9	92	65.5	0	0	---	0.00	30.020 
05:55	67.9	67.9	67.9	92	65.5	0	0	---	0.00	30.020 
06:00	67.9	67.9	67.9	92	65.5	0	0	---	0.00	30.024 
06:05	67.9	67.9	67.9	92	65.5	0	0	---	0.00	30.024 
06:10	67.9	67.9	67.9	92	65.5	0	0	---	0.00	30.024 
06:15	67.9	67.9	67.9	92	65.5	0	0	---	0.00	30.033 
06:20	67.9	67.9	67.9	92	65.5	0	0	---	0.00	30.033 
06:25	68.1	68.1	68.1	92	65.7	0	0	---	0.00	30.033 
06:30	68.1	68.1	68.1	92	65.7	0	0	---	0.00	30.034 
06:35	68.4	68.4	68.4	92	66.0	0	0	---	0.00	30.034 
06:40	68.4	68.4	68.4	92	66.0	0	0	---	0.00	30.034 
06:45	68.6	68.6	68.6	91	65.9	0	0	---	0.00	30.034 
06:50	68.6	68.6	68.6	91	65.9	0	0	---	0.00	30.034 
06:55	68.8	68.8	68.8	91	66.1	0	0	---	0.00	30.034 
07:00	68.8	68.8	68.8	91	66.1	0	0	---	0.00	30.035 
07:05	68.9	68.9	68.9	91	66.2	0	0	---	0.00	30.035 
07:10	69.1	69.1	69.1	90	66.0	0	0	---	0.00	30.035 
07:15	69.4	69.4	69.4	90	66.3	0	0	---	0.00	30.035 
07:20	69.6	69.6	69.6	89	66.2	0	0	---	0.00	30.035 
07:25	69.8	69.8	69.8	89	66.4	0	0	---	0.00	30.035 
07:30	69.9	69.9	69.9	89	66.5	0	0	---	0.00	30.031 
07:35	70.1	70.1	70.1	89	66.7	0	0	---	0.00	30.031 
07:40	70.6	70.6	70.6	88	66.9	0	0	---	0.00	30.031 
07:45	71.1	71.1	71.1	88	67.4	0	0	---	0.00	30.034 
07:50	71.6	71.6	71.6	88	67.8	0	0	---	0.00	30.034 
07:55	72.3	72.3	72.3	86	67.9	0	0	---	0.00	30.034 
08:00	72.8	72.8	72.8	84	67.7	0	1	292	0.00	30.024 
08:05	73.5	73.5	73.5	82	67.7	0	2	292	0.00	30.024 
08:10	74.0	74.0	74.0	80	67.4	0	1	292	0.00	30.024 
08:15	74.7	74.7	74.7	79	67.7	0	1	292	0.00	30.026 
08:20	75.4	75.4	76.4	77	67.7	0	2	292	0.00	30.026 
08:25	76.0	76.0	77.3	76	67.9	0	2	292	0.00	30.026 
08:30	76.5	76.5	78.0	75	68.0	1	2	292	0.00	30.025 
08:35	77.0	77.0	78.7	74	68.1	0	2	292	0.00	30.025 
08:40	77.4	77.4	79.3	72	67.6	1	3	292	0.00	30.025 
08:45	77.9	77.9	79.9	72	68.1	0	1	292	0.00	30.022 
08:50	78.3	78.3	80.4	70	67.7	1	3	292	0.00	30.022 
08:55	79.0	79.0	81.4	70	68.4	1	2	292	0.00	30.022 
09:00	79.4	79.4	81.8	68	67.9	2	3	292	0.00	30.028 
09:05	79.8	79.8	82.3	67	67.8	2	3	292	0.00	30.028 
09:10	80.3	80.3	83.0	67	68.3	1	2	292	0.00	30.028 
09:15	80.9	80.9	83.5	64	67.6	1	3	292	0.00	30.026 
09:20	81.4	81.4	84.3	64	68.0	2	4	292	0.00	30.026 
09:25	81.8	81.8	84.7	63	67.9	1	3	292	0.00	30.026 
09:30	82.4	82.4	85.6	63	68.5	2	4	292	0.00	30.029 
09:35	82.8	82.8	86.1	62	68.4	2	4	292	0.00	30.029 
09:40	83.2	83.2	86.7	62	68.8	2	4	292	0.00	30.029 
09:45	83.4	83.4	87.0	62	69.0	2	4	315	0.00	30.029 
09:50	83.6	83.6	87.6	63	69.6	3	7	338	0.00	30.029 
09:55	83.8	83.8	87.7	62	69.4	2	5	292	0.00	30.029 
10:00	84.1	84.1	88.2	62	69.6	1	4	270	0.00	30.025 
10:05	84.5	84.5	88.7	61	69.5	2	4	270	0.00	30.025 
10:10	84.7	84.7	89.0	61	69.7	2	5	315	0.00	30.025 
10:15	84.5	84.5	88.7	61	69.5	3	5	270	0.00	30.030 
10:20	84.5	84.5	89.0	62	70.0	3	6	270	0.00	30.030 
10:25	84.7	84.7	89.3	62	70.2	3	5	270	0.00	30.030 
10:30	85.1	85.1	90.1	62	70.6	2	5	292	0.00	30.026 
10:35	85.3	85.3	90.1	61	70.3	2	4	292	0.00	30.026 
10:40	85.3	85.3	90.1	61	70.3	4	7	270	0.00	30.026 
10:45	85.3	85.3	90.1	61	70.3	3	7	270	0.00	30.023 
10:50	85.5	85.5	90.2	60	70.0	3	5	270	0.00	30.023 
10:55	85.5	85.5	90.5	61	70.5	3	7	270	0.00	30.023 
11:00	85.5	85.5	90.2	60	70.0	3	6	315	0.00	30.014 
11:05	85.9	85.9	90.9	60	70.4	3	7	270	0.00	30.014 
11:10	85.7	85.7	89.5	57	68.7	4	9	270	0.00	30.014 
11:15	86.1	86.1	90.9	59	70.1	3	6	270	0.00	30.018 
11:20	86.5	86.5	91.0	57	69.4	3	6	292	0.00	30.018 
11:25	86.1	86.1	90.2	57	69.1	4	9	270	0.00	30.018 
11:30	85.9	85.9	90.2	58	69.4	4	6	292	0.00	30.013 
11:35	86.5	86.5	91.0	57	69.4	3	6	270	0.00	30.013 
11:40	87.0	87.0	91.5	56	69.4	2	6	315	0.00	30.013 
11:45	86.5	86.5	91.3	58	69.9	3	6	270	0.00	30.013 
11:50	86.7	86.7	90.6	55	68.6	3	7	315	0.00	30.013 
11:55	87.2	87.2	91.9	56	69.6	3	6	270	0.00	30.013 
12:00	87.8	87.8	92.2	54	69.0	3	6	315	0.00	30.012 
12:05	87.8	87.8	91.8	53	68.5	3	6	315	0.00	30.012 
12:10	88.0	88.0	92.2	53	68.7	3	6	315	0.00	30.012 
12:15	88.0	88.0	92.2	53	68.7	3	6	315	0.00	30.014 
12:20	88.0	88.0	92.6	54	69.2	3	5	270	0.00	30.014 
12:25	88.0	88.0	92.2	53	68.7	3	6	270	0.00	30.014 
12:30	88.2	88.2	91.4	50	67.2	3	7	270	0.00	30.018 
12:35	88.6	88.6	91.7	49	67.0	3	6	270	0.00	30.018 
12:40	89.0	89.0	92.0	48	66.7	4	7	270	0.00	30.018 
12:45	89.0	89.0	92.4	49	67.3	3	6	270	0.00	30.011 
12:50	89.7	89.7	92.8	47	66.7	3	6	270	0.00	30.011 
12:55	89.5	89.5	92.4	47	66.6	3	7	270	0.00	30.011 
13:00	89.7	89.7	93.2	48	67.4	3	6	270	0.00	30.006 
13:05	89.7	89.7	93.2	48	67.4	2	5	0	0.00	30.006 
13:10	89.9	89.9	94.0	49	68.1	2	4	338	0.00	30.006 
13:15	89.9	89.9	92.7	46	66.3	4	6	270	0.00	30.000 
13:20	89.7	89.7	92.4	46	66.1	4	7	270	0.00	30.000 
13:25	89.9	89.9	92.3	45	65.7	3	6	292	0.00	30.000 
13:30	90.3	90.3	93.4	46	66.7	3	5	270	0.00	29.986 
13:35	90.5	90.5	93.8	46	66.8	4	7	270	0.00	29.986 
13:40	90.5	90.5	93.8	46	66.8	3	5	270	0.00	29.986 
13:45	90.1	90.1	93.9	48	67.7	3	6	292	0.00	29.980 
13:50	89.7	89.7	93.2	48	67.4	3	5	292	0.00	29.980 
13:55	89.9	89.9	92.7	46	66.3	3	6	292	0.00	29.980 
14:00	90.1	90.1	93.1	46	66.5	3	6	270	0.00	29.976 
14:05	90.1	90.1	93.5	47	67.1	4	10	270	0.00	29.976 
14:10	90.3	90.3	93.4	46	66.7	3	10	292	0.00	29.976 
14:15	90.3	90.3	93.8	47	67.3	4	9	270	0.00	29.974 
14:20	90.5	90.5	94.6	48	68.1	4	7	270	0.00	29.974 
14:25	90.1	90.1	93.5	47	67.1	4	9	292	0.00	29.974 
14:30	89.9	89.9	93.1	47	66.9	4	7	270	0.00	29.971 
14:35	90.3	90.3	93.8	47	67.3	3	6	292	0.00	29.971 
14:40	91.0	91.0	93.8	44	66.0	3	7	270	0.00	29.971 
14:45	91.4	91.4	94.0	43	65.7	4	7	270	0.00	29.969 
14:50	91.4	91.4	94.0	43	65.7	4	7	270	0.00	29.969 
14:55	91.4	91.4	94.0	43	65.7	3	7	270	0.00	29.969 
15:00	91.2	91.2	93.7	43	65.5	3	6	270	0.00	29.960 
15:05	91.2	91.2	93.3	42	64.9	4	8	270	0.00	29.960 
15:10	91.2	91.2	93.7	43	65.5	4	7	270	0.00	29.960 
15:15	91.8	91.8	94.7	43	66.1	2	4	270	0.00	29.955 
15:20	92.1	92.1	94.4	41	65.0	4	7	270	0.00	29.955 
15:25	91.6	91.6	93.9	42	65.2	4	6	292	0.00	29.955 
15:30	91.8	91.8	94.7	43	66.1	3	6	270	0.00	29.955 
15:35	91.8	91.8	95.2	44	66.7	3	7	270	0.00	29.955 
15:40	92.3	92.3	95.1	42	65.8	3	7	270	0.00	29.955 
15:45	92.5	92.5	94.2	39	63.9	3	4	315	0.00	29.954 
15:50	91.8	91.8	94.7	43	66.1	2	4	315	0.00	29.954 
15:55	91.6	91.6	94.8	44	66.6	2	4	292	0.00	29.954 
16:00	91.2	91.2	94.1	44	66.2	2	6	292	0.00	29.957 
16:05	91.0	91.0	93.8	44	66.0	3	7	270	0.00	29.957 
16:10	90.7	90.7	93.3	44	65.7	3	6	315	0.00	29.957 
16:15	91.0	91.0	93.4	43	65.4	3	5	315	0.00	29.958 
16:20	91.0	91.0	93.8	44	66.0	2	6	292	0.00	29.958 
16:25	91.0	91.0	94.2	45	66.7	2	5	270	0.00	29.958 
16:30	90.7	90.7	93.7	45	66.4	3	7	270	0.00	29.955 
16:35	90.5	90.5	94.2	47	67.5	1	3	315	0.00	29.955 
16:40	90.5	90.5	93.3	45	66.2	2	5	292	0.00	29.955 
16:45	91.0	91.0	94.2	45	66.7	3	7	270	0.00	29.956 
16:50	91.0	91.0	94.2	45	66.7	3	6	292	0.00	29.956 
16:55	90.7	90.7	94.1	46	67.0	2	5	315	0.00	29.956 
17:00	90.7	90.7	93.7	45	66.4	1	4	292	0.00	29.958 
17:05	90.1	90.1	93.1	46	66.5	2	5	315	0.00	29.958 
17:10	90.1	90.1	93.1	46	66.5	3	6	270	0.00	29.958 
17:15	90.3	90.3	93.8	47	67.3	2	4	270	0.00	29.957 
17:20	89.9	89.9	92.7	46	66.3	3	5	270	0.00	29.957 
17:25	90.3	90.3	93.0	45	66.0	2	5	292	0.00	29.957 
17:30	90.3	90.3	93.8	47	67.3	3	7	270	0.00	29.956 
17:35	90.5	90.5	93.8	46	66.8	2	9	292	0.00	29.956 
17:40	89.9	89.9	93.1	47	66.9	3	6	292	0.00	29.956 
17:45	89.3	89.3	92.5	48	67.0	3	6	315	0.00	29.951 
17:50	89.0	89.0	92.4	49	67.3	3	5	315	0.00	29.951 
17:55	89.3	89.3	93.3	50	68.2	3	6	315	0.00	29.951 
18:00	89.5	89.5	93.2	49	67.8	3	6	270	0.00	29.943 
18:05	89.5	89.5	93.7	50	68.4	2	5	292	0.00	29.943 
18:10	89.0	89.0	93.2	51	68.5	2	5	315	0.00	29.943 
18:15	88.8	88.8	92.4	50	67.7	2	4	270	0.00	29.950 
18:20	89.0	89.0	92.4	49	67.3	1	4	292	0.00	29.950 
18:25	89.0	89.0	92.4	49	67.3	2	5	270	0.00	29.950 
18:30	88.8	88.8	92.0	49	67.1	2	5	315	0.00	29.950 
18:35	88.6	88.6	92.1	50	67.5	2	5	270	0.00	29.950 
18:40	88.4	88.4	91.7	50	67.4	2	4	338	0.00	29.950 
18:45	88.2	88.2	91.8	51	67.7	3	6	270	0.00	29.947 
18:50	88.0	88.0	91.4	51	67.6	3	6	270	0.00	29.947 
18:55	87.8	87.8	91.4	52	67.9	3	6	270	0.00	29.947 
19:00	87.6	87.6	91.5	53	68.3	2	5	315	0.00	29.944 
19:05	87.4	87.4	91.1	53	68.1	1	3	315	0.00	29.944 
19:10	87.4	87.4	91.1	53	68.1	1	4	315	0.00	29.944 
19:15	87.4	87.4	91.1	53	68.1	2	4	270	0.00	29.942 
19:20	87.2	87.2	90.8	53	67.9	2	4	270	0.00	29.942 
19:25	87.0	87.0	90.4	53	67.8	2	5	270	0.00	29.942 
19:30	87.0	87.0	90.4	53	67.8	2	4	292	0.00	29.952 
19:35	86.7	86.7	89.9	53	67.5	3	6	270	0.00	29.952 
19:40	86.7	86.7	90.3	54	68.0	2	5	292	0.00	29.952 
19:45	86.5	86.5	89.9	54	67.8	2	4	270	0.00	29.950 
19:50	86.5	86.5	90.3	55	68.4	1	5	270	0.00	29.950 
19:55	86.3	86.3	89.9	55	68.2	0	2	270	0.00	29.950 
20:00	86.3	86.3	90.2	56	68.7	0	1	270	0.00	29.947 
20:05	86.1	86.1	89.9	56	68.5	0	2	270	0.00	29.947 
20:10	85.9	85.9	89.6	56	68.3	1	3	270	0.00	29.947 
20:15	85.7	85.7	89.5	57	68.7	1	2	292	0.00	29.939 
20:20	85.5	85.5	89.5	58	69.0	0	3	292	0.00	29.939 
20:25	85.3	85.3	89.2	58	68.8	1	2	292	0.00	29.939 
20:30	85.3	85.3	89.2	58	68.8	0	2	292	0.00	29.938 
20:35	84.9	84.9	88.8	59	68.9	0	2	292	0.00	29.938 
20:40	84.7	84.7	88.4	59	68.8	0	1	292	0.00	29.938 
20:45	84.7	84.7	88.7	60	69.2	0	2	292	0.00	29.943 
20:50	84.5	84.5	88.7	61	69.5	0	2	292	0.00	29.943 
20:55	84.1	84.1	88.2	62	69.6	0	2	292	0.00	29.943 
21:00	84.0	84.0	88.1	62	69.5	0	3	292	0.00	29.940 
21:05	84.0	84.0	88.4	63	70.0	0	0	---	0.00	29.940 
21:10	83.8	83.8	88.0	63	69.8	0	0	---	0.00	29.940 
21:15	83.6	83.6	87.9	64	70.1	0	0	---	0.00	29.935 
21:20	83.4	83.4	87.6	64	69.9	0	0	---	0.00	29.935 
21:25	83.2	83.2	87.2	64	69.7	0	0	---	0.00	29.935 
21:30	82.8	82.8	86.7	65	69.8	0	0	---	0.00	29.938 
21:35	82.6	82.6	86.4	65	69.6	0	0	---	0.00	29.938 
21:40	82.6	82.6	86.6	66	70.1	0	0	---	0.00	29.938 
21:45	82.4	82.4	86.3	66	69.9	0	0	---	0.00	29.936 
21:50	82.2	82.2	86.1	67	70.1	0	0	---	0.00	29.936 
21:55	82.0	82.0	85.8	67	69.9	0	0	---	0.00	29.936 
22:00	81.6	81.6	85.3	68	70.0	0	0	---	0.00	29.935 
22:05	81.4	81.4	85.0	68	69.8	0	0	---	0.00	29.935 
22:10	81.2	81.2	84.8	69	70.0	0	0	---	0.00	29.935 
22:15	81.1	81.1	84.6	69	69.9	0	0	---	0.00	29.934 
22:20	80.9	80.9	84.5	70	70.2	0	0	---	0.00	29.934 
22:25	80.7	80.7	84.1	70	70.0	0	0	---	0.00	29.934 
22:30	80.7	80.7	84.1	70	70.0	0	0	---	0.00	29.936 
22:35	80.5	80.5	83.9	71	70.2	0	0	---	0.00	29.936 
22:40	80.3	80.3	83.6	71	70.0	0	0	---	0.00	29.936 
22:45	79.9	79.9	83.0	72	70.0	0	0	---	0.00	29.934 
22:50	79.8	79.8	83.0	73	70.4	0	0	---	0.00	29.934 
22:55	79.6	79.6	82.7	74	70.6	0	0	---	0.00	29.934 
23:00	79.6	79.6	82.7	74	70.6	0	0	---	0.00	29.932 
23:05	79.4	79.4	82.5	75	70.8	0	0	---	0.00	29.932 
23:10	79.4	79.4	82.5	75	70.8	0	0	---	0.00	29.932 
23:15	79.2	79.2	82.1	75	70.6	0	0	---	0.00	29.932 
23:20	78.8	78.8	81.5	75	70.2	0	0	---	0.00	29.932 
23:25	78.6	78.6	81.2	76	70.4	0	0	---	0.00	29.932 
23:30	78.5	78.5	81.0	76	70.3	0	0	---	0.00	29.925 
23:35	78.1	78.1	80.4	77	70.3	0	0	---	0.00	29.925 
23:40	77.9	77.9	80.1	78	70.5	0	0	---	0.00	29.925 
23:45	77.6	77.6	79.6	79	70.6	0	0	---	0.00	29.921 
23:50	77.4	77.4	79.3	79	70.4	0	0	---	0.00	29.921 
23:55	77.0	77.0	78.6	80	70.3	0	0	---	0.00	29.921 

CoCoRaHS
IN-AL-39
A2 Web Hosting
Creative Commons License
GoDaddy
search engine by freefind advanced

loaded 2018-11-15 16:28:24 • last modified 2010-11-18 10:43:29
Privacy PolicyDisclaimer
• wx.awcolley.com is powered by PmWiki v.2002016 •
• all content (unless otherwise noted) © 2018 A W Colley